sensor_id;sensor_type;location;lat;lon;timestamp;temperature;humidity
33815;DHT22;20121;51.910;8.406;2022-08-18T00:00:07;20.10;99.90
33815;DHT22;20121;51.910;8.406;2022-08-18T00:02:40;20.10;99.90
33815;DHT22;20121;51.910;8.406;2022-08-18T00:05:08;20.00;99.90
33815;DHT22;20121;51.910;8.406;2022-08-18T00:07:34;20.00;99.90
33815;DHT22;20121;51.910;8.406;2022-08-18T00:10:01;20.00;99.90
33815;DHT22;20121;51.910;8.406;2022-08-18T00:12:30;20.00;99.90
33815;DHT22;20121;51.910;8.406;2022-08-18T00:14:57;20.00;99.90
33815;DHT22;20121;51.910;8.406;2022-08-18T00:17:27;19.90;99.90
33815;DHT22;20121;51.910;8.406;2022-08-18T00:19:53;19.90;99.90
33815;DHT22;20121;51.910;8.406;2022-08-18T00:22:20;20.20;99.90
33815;DHT22;20121;51.910;8.406;2022-08-18T00:24:48;19.80;99.90
33815;DHT22;20121;51.910;8.406;2022-08-18T00:27:19;19.80;99.90
33815;DHT22;20121;51.910;8.406;2022-08-18T00:29:46;19.80;99.90
33815;DHT22;20121;51.910;8.406;2022-08-18T00:32:15;19.80;99.90
33815;DHT22;20121;51.910;8.406;2022-08-18T00:34:42;19.70;99.90
33815;DHT22;20121;51.910;8.406;2022-08-18T00:37:07;19.70;99.90
33815;DHT22;20121;51.910;8.406;2022-08-18T00:39:33;19.70;99.90
33815;DHT22;20121;51.910;8.406;2022-08-18T00:42:10;19.70;99.90
33815;DHT22;20121;51.910;8.406;2022-08-18T00:44:36;19.60;99.90
33815;DHT22;20121;51.910;8.406;2022-08-18T00:47:01;19.60;99.90
33815;DHT22;20121;51.910;8.406;2022-08-18T00:49:27;19.60;99.90
33815;DHT22;20121;51.910;8.406;2022-08-18T00:51:53;19.50;99.90
33815;DHT22;20121;51.910;8.406;2022-08-18T00:54:25;19.20;99.90
33815;DHT22;20121;51.910;8.406;2022-08-18T00:56:54;19.40;99.90
33815;DHT22;20121;51.910;8.406;2022-08-18T01:02:23;19.40;99.90
33815;DHT22;20121;51.910;8.406;2022-08-18T01:05:00;19.30;99.90
33815;DHT22;20121;51.910;8.406;2022-08-18T01:07:35;19.30;99.90
33815;DHT22;20121;51.910;8.406;2022-08-18T01:10:03;19.30;99.90
33815;DHT22;20121;51.910;8.406;2022-08-18T01:12:30;19.20;99.90
33815;DHT22;20121;51.910;8.406;2022-08-18T01:14:56;19.20;99.90
33815;DHT22;20121;51.910;8.406;2022-08-18T01:17:23;19.20;99.90
33815;DHT22;20121;51.910;8.406;2022-08-18T01:20:13;19.20;99.90
33815;DHT22;20121;51.910;8.406;2022-08-18T01:23:06;19.20;99.90
33815;DHT22;20121;51.910;8.406;2022-08-18T01:25:36;19.20;99.90
33815;DHT22;20121;51.910;8.406;2022-08-18T01:28:21;19.30;99.90
33815;DHT22;20121;51.910;8.406;2022-08-18T01:30:51;19.10;99.90
33815;DHT22;20121;51.910;8.406;2022-08-18T01:33:18;19.10;99.90
33815;DHT22;20121;51.910;8.406;2022-08-18T01:35:46;19.10;99.90
33815;DHT22;20121;51.910;8.406;2022-08-18T01:38:18;19.00;99.90
33815;DHT22;20121;51.910;8.406;2022-08-18T01:40:45;19.00;99.90
33815;DHT22;20121;51.910;8.406;2022-08-18T01:43:12;19.00;99.90
33815;DHT22;20121;51.910;8.406;2022-08-18T01:45:39;19.00;99.90
33815;DHT22;20121;51.910;8.406;2022-08-18T01:48:06;18.90;99.90
33815;DHT22;20121;51.910;8.406;2022-08-18T01:50:32;18.90;99.90
33815;DHT22;20121;51.910;8.406;2022-08-18T01:52:59;18.90;99.90
33815;DHT22;20121;51.910;8.406;2022-08-18T01:55:25;18.80;99.90
33815;DHT22;20121;51.910;8.406;2022-08-18T01:57:54;18.70;99.90
33815;DHT22;20121;51.910;8.406;2022-08-18T02:00:20;18.70;99.90
33815;DHT22;20121;51.910;8.406;2022-08-18T02:02:46;18.70;99.90
33815;DHT22;20121;51.910;8.406;2022-08-18T02:05:28;18.70;99.90
33815;DHT22;20121;51.910;8.406;2022-08-18T02:07:55;18.40;99.90
33815;DHT22;20121;51.910;8.406;2022-08-18T02:10:21;18.70;99.90
33815;DHT22;20121;51.910;8.406;2022-08-18T02:15:13;18.60;99.90
33815;DHT22;20121;51.910;8.406;2022-08-18T02:17:41;18.50;99.90
33815;DHT22;20121;51.910;8.406;2022-08-18T02:20:09;18.60;99.90
33815;DHT22;20121;51.910;8.406;2022-08-18T02:22:36;18.30;99.90
33815;DHT22;20121;51.910;8.406;2022-08-18T02:25:02;18.50;99.90
33815;DHT22;20121;51.910;8.406;2022-08-18T02:27:28;18.50;99.90
33815;DHT22;20121;51.910;8.406;2022-08-18T02:29:53;18.40;99.90
33815;DHT22;20121;51.910;8.406;2022-08-18T02:34:45;18.40;99.90
33815;DHT22;20121;51.910;8.406;2022-08-18T02:37:11;18.40;99.90
33815;DHT22;20121;51.910;8.406;2022-08-18T02:39:36;18.40;99.90
33815;DHT22;20121;51.910;8.406;2022-08-18T02:42:04;18.30;99.90
33815;DHT22;20121;51.910;8.406;2022-08-18T02:44:30;18.10;99.90
33815;DHT22;20121;51.910;8.406;2022-08-18T02:46:57;18.30;99.90
33815;DHT22;20121;51.910;8.406;2022-08-18T02:49:23;18.30;99.90
33815;DHT22;20121;51.910;8.406;2022-08-18T02:51:51;18.30;99.90
33815;DHT22;20121;51.910;8.406;2022-08-18T02:54:18;18.20;99.90
33815;DHT22;20121;51.910;8.406;2022-08-18T02:56:45;18.20;99.90
33815;DHT22;20121;51.910;8.406;2022-08-18T02:59:17;18.20;99.90
33815;DHT22;20121;51.910;8.406;2022-08-18T03:01:46;18.50;99.90
33815;DHT22;20121;51.910;8.406;2022-08-18T03:04:16;18.20;99.90
33815;DHT22;20121;51.910;8.406;2022-08-18T03:06:42;18.20;99.90
33815;DHT22;20121;51.910;8.406;2022-08-18T03:09:09;18.20;99.90
33815;DHT22;20121;51.910;8.406;2022-08-18T03:11:36;18.10;99.90
33815;DHT22;20121;51.910;8.406;2022-08-18T03:14:02;18.10;99.90
33815;DHT22;20121;51.910;8.406;2022-08-18T03:16:29;18.10;99.90
33815;DHT22;20121;51.910;8.406;2022-08-18T03:18:58;18.10;99.90
33815;DHT22;20121;51.910;8.406;2022-08-18T03:21:26;18.10;99.90
33815;DHT22;20121;51.910;8.406;2022-08-18T03:23:53;18.10;99.90
33815;DHT22;20121;51.910;8.406;2022-08-18T03:26:21;18.00;99.90
33815;DHT22;20121;51.910;8.406;2022-08-18T03:28:49;18.00;99.90
33815;DHT22;20121;51.910;8.406;2022-08-18T03:31:16;18.00;99.90
33815;DHT22;20121;51.910;8.406;2022-08-18T03:33:44;18.00;99.90
33815;DHT22;20121;51.910;8.406;2022-08-18T03:36:19;18.00;99.90
33815;DHT22;20121;51.910;8.406;2022-08-18T03:38:46;17.90;99.90
33815;DHT22;20121;51.910;8.406;2022-08-18T03:41:14;18.00;99.90
33815;DHT22;20121;51.910;8.406;2022-08-18T03:43:41;17.90;99.90
33815;DHT22;20121;51.910;8.406;2022-08-18T03:46:09;17.90;99.90
33815;DHT22;20121;51.910;8.406;2022-08-18T03:48:39;17.90;99.90
33815;DHT22;20121;51.910;8.406;2022-08-18T03:51:21;17.90;99.90
33815;DHT22;20121;51.910;8.406;2022-08-18T03:53:48;17.90;99.90
33815;DHT22;20121;51.910;8.406;2022-08-18T03:56:20;17.80;99.90
33815;DHT22;20121;51.910;8.406;2022-08-18T03:59:03;17.80;99.90
33815;DHT22;20121;51.910;8.406;2022-08-18T04:01:31;17.80;99.90
33815;DHT22;20121;51.910;8.406;2022-08-18T04:04:07;17.80;99.90
33815;DHT22;20121;51.910;8.406;2022-08-18T04:06:38;17.70;99.90
33815;DHT22;20121;51.910;8.406;2022-08-18T04:09:07;17.70;99.90
33815;DHT22;20121;51.910;8.406;2022-08-18T04:11:35;17.90;99.90
33815;DHT22;20121;51.910;8.406;2022-08-18T04:14:01;17.70;99.90
33815;DHT22;20121;51.910;8.406;2022-08-18T04:16:29;17.70;99.90
33815;DHT22;20121;51.910;8.406;2022-08-18T04:18:57;17.50;99.90
33815;DHT22;20121;51.910;8.406;2022-08-18T04:21:30;17.70;99.90
33815;DHT22;20121;51.910;8.406;2022-08-18T04:26:28;17.80;99.90
33815;DHT22;20121;51.910;8.406;2022-08-18T04:28:54;18.00;99.90
33815;DHT22;20121;51.910;8.406;2022-08-18T04:31:20;18.00;99.90
33815;DHT22;20121;51.910;8.406;2022-08-18T04:33:49;18.10;99.90
33815;DHT22;20121;51.910;8.406;2022-08-18T04:36:15;18.10;99.90
33815;DHT22;20121;51.910;8.406;2022-08-18T04:38:42;18.20;99.90
33815;DHT22;20121;51.910;8.406;2022-08-18T04:41:09;18.20;99.90
33815;DHT22;20121;51.910;8.406;2022-08-18T04:43:37;18.20;99.90
33815;DHT22;20121;51.910;8.406;2022-08-18T04:46:03;18.20;99.90
33815;DHT22;20121;51.910;8.406;2022-08-18T04:48:39;18.20;99.90
33815;DHT22;20121;51.910;8.406;2022-08-18T04:51:17;18.10;99.90
33815;DHT22;20121;51.910;8.406;2022-08-18T04:53:44;18.10;99.90
33815;DHT22;20121;51.910;8.406;2022-08-18T04:56:23;18.10;99.90
33815;DHT22;20121;51.910;8.406;2022-08-18T04:59:00;18.10;99.90
33815;DHT22;20121;51.910;8.406;2022-08-18T05:01:34;18.30;99.90
33815;DHT22;20121;51.910;8.406;2022-08-18T05:03:59;18.10;99.90
33815;DHT22;20121;51.910;8.406;2022-08-18T05:06:26;18.40;99.90
33815;DHT22;20121;51.910;8.406;2022-08-18T05:08:58;18.10;99.90
33815;DHT22;20121;51.910;8.406;2022-08-18T05:11:26;18.10;99.90
33815;DHT22;20121;51.910;8.406;2022-08-18T05:13:58;18.10;99.90
33815;DHT22;20121;51.910;8.406;2022-08-18T05:16:25;18.10;99.90
33815;DHT22;20121;51.910;8.406;2022-08-18T05:18:51;18.10;99.90
33815;DHT22;20121;51.910;8.406;2022-08-18T05:21:19;18.10;99.90
33815;DHT22;20121;51.910;8.406;2022-08-18T05:23:47;18.10;99.90
33815;DHT22;20121;51.910;8.406;2022-08-18T05:26:14;18.10;99.90
33815;DHT22;20121;51.910;8.406;2022-08-18T05:28:41;18.10;99.90
33815;DHT22;20121;51.910;8.406;2022-08-18T05:31:10;18.10;99.90
33815;DHT22;20121;51.910;8.406;2022-08-18T05:33:36;18.10;99.90
33815;DHT22;20121;51.910;8.406;2022-08-18T05:36:17;18.10;99.90
33815;DHT22;20121;51.910;8.406;2022-08-18T05:39:00;18.10;99.90
33815;DHT22;20121;51.910;8.406;2022-08-18T05:41:32;18.10;99.90
33815;DHT22;20121;51.910;8.406;2022-08-18T05:43:59;17.80;99.90
33815;DHT22;20121;51.910;8.406;2022-08-18T05:46:33;18.10;99.90
33815;DHT22;20121;51.910;8.406;2022-08-18T05:49:03;17.90;99.90
33815;DHT22;20121;51.910;8.406;2022-08-18T05:51:42;18.30;99.90
33815;DHT22;20121;51.910;8.406;2022-08-18T05:54:09;18.30;99.90
33815;DHT22;20121;51.910;8.406;2022-08-18T05:57:17;18.30;99.90
33815;DHT22;20121;51.910;8.406;2022-08-18T05:59:44;18.40;99.90
33815;DHT22;20121;51.910;8.406;2022-08-18T06:02:27;18.40;99.90
33815;DHT22;20121;51.910;8.406;2022-08-18T06:05:08;18.40;99.90
33815;DHT22;20121;51.910;8.406;2022-08-18T06:10:07;18.50;99.90
33815;DHT22;20121;51.910;8.406;2022-08-18T06:12:37;18.60;99.90
33815;DHT22;20121;51.910;8.406;2022-08-18T06:15:17;18.70;99.90
33815;DHT22;20121;51.910;8.406;2022-08-18T06:39:52;19.20;99.90
33815;DHT22;20121;51.910;8.406;2022-08-18T06:42:20;19.20;99.90
33815;DHT22;20121;51.910;8.406;2022-08-18T06:45:10;19.20;99.90
33815;DHT22;20121;51.910;8.406;2022-08-18T06:50:14;19.30;99.90
33815;DHT22;20121;51.910;8.406;2022-08-18T06:52:53;19.40;99.90
33815;DHT22;20121;51.910;8.406;2022-08-18T06:55:38;19.50;99.90
33815;DHT22;20121;51.910;8.406;2022-08-18T06:58:25;19.50;99.90
33815;DHT22;20121;51.910;8.406;2022-08-18T07:06:05;19.50;99.90
33815;DHT22;20121;51.910;8.406;2022-08-18T07:08:40;19.60;99.90
33815;DHT22;20121;51.910;8.406;2022-08-18T07:11:16;19.60;99.90
33815;DHT22;20121;51.910;8.406;2022-08-18T07:13:45;19.60;99.90
33815;DHT22;20121;51.910;8.406;2022-08-18T07:16:37;19.60;99.90
33815;DHT22;20121;51.910;8.406;2022-08-18T07:19:16;19.70;99.90
33815;DHT22;20121;51.910;8.406;2022-08-18T07:21:46;19.80;99.90
33815;DHT22;20121;51.910;8.406;2022-08-18T07:24:30;19.80;99.90
33815;DHT22;20121;51.910;8.406;2022-08-18T07:27:01;19.90;99.90
33815;DHT22;20121;51.910;8.406;2022-08-18T07:29:29;19.90;99.90
33815;DHT22;20121;51.910;8.406;2022-08-18T07:31:58;20.10;99.90
33815;DHT22;20121;51.910;8.406;2022-08-18T07:34:34;20.20;99.90
33815;DHT22;20121;51.910;8.406;2022-08-18T07:37:13;20.30;99.90
33815;DHT22;20121;51.910;8.406;2022-08-18T07:39:53;20.30;99.90
33815;DHT22;20121;51.910;8.406;2022-08-18T07:42:48;20.30;99.90
33815;DHT22;20121;51.910;8.406;2022-08-18T07:45:26;20.20;99.90
33815;DHT22;20121;51.910;8.406;2022-08-18T07:50:51;20.30;99.90
33815;DHT22;20121;51.910;8.406;2022-08-18T07:53:41;20.30;99.90
33815;DHT22;20121;51.910;8.406;2022-08-18T07:56:21;20.30;99.90
33815;DHT22;20121;51.910;8.406;2022-08-18T07:59:17;20.30;99.90
33815;DHT22;20121;51.910;8.406;2022-08-18T08:01:54;20.20;99.90
33815;DHT22;20121;51.910;8.406;2022-08-18T08:04:38;20.20;99.90
33815;DHT22;20121;51.910;8.406;2022-08-18T08:07:09;20.20;99.90
33815;DHT22;20121;51.910;8.406;2022-08-18T08:12:36;20.10;99.90
33815;DHT22;20121;51.910;8.406;2022-08-18T08:20:43;20.00;99.90
33815;DHT22;20121;51.910;8.406;2022-08-18T08:31:47;20.40;99.90
33815;DHT22;20121;51.910;8.406;2022-08-18T08:37:01;20.60;99.90
33815;DHT22;20121;51.910;8.406;2022-08-18T08:39:43;20.30;99.90
33815;DHT22;20121;51.910;8.406;2022-08-18T08:44:51;20.70;99.90
33815;DHT22;20121;51.910;8.406;2022-08-18T08:47:23;20.70;99.90
33815;DHT22;20121;51.910;8.406;2022-08-18T08:50:00;20.70;99.90
33815;DHT22;20121;51.910;8.406;2022-08-18T08:52:46;20.70;99.90
33815;DHT22;20121;51.910;8.406;2022-08-18T08:55:16;20.70;99.90
33815;DHT22;20121;51.910;8.406;2022-08-18T08:57:48;20.80;99.90
33815;DHT22;20121;51.910;8.406;2022-08-18T09:00:15;20.90;99.90
33815;DHT22;20121;51.910;8.406;2022-08-18T09:05:28;21.00;99.90
33815;DHT22;20121;51.910;8.406;2022-08-18T09:25:08;21.20;99.90
33815;DHT22;20121;51.910;8.406;2022-08-18T09:30:03;21.30;99.90
33815;DHT22;20121;51.910;8.406;2022-08-18T09:35:36;21.50;99.90
33815;DHT22;20121;51.910;8.406;2022-08-18T09:38:14;21.70;99.90
33815;DHT22;20121;51.910;8.406;2022-08-18T09:41:13;22.00;99.90
33815;DHT22;20121;51.910;8.406;2022-08-18T09:44:03;22.10;99.90
33815;DHT22;20121;51.910;8.406;2022-08-18T09:52:45;22.50;99.90
33815;DHT22;20121;51.910;8.406;2022-08-18T09:55:05;22.50;99.90
33815;DHT22;20121;51.910;8.406;2022-08-18T09:57:33;22.50;99.90
33815;DHT22;20121;51.910;8.406;2022-08-18T10:13:29;22.90;99.90
33815;DHT22;20121;51.910;8.406;2022-08-18T10:21:27;22.70;99.90
33815;DHT22;20121;51.910;8.406;2022-08-18T10:23:58;22.70;99.90
33815;DHT22;20121;51.910;8.406;2022-08-18T10:29:05;22.70;99.90
33815;DHT22;20121;51.910;8.406;2022-08-18T10:40:41;23.00;99.90
33815;DHT22;20121;51.910;8.406;2022-08-18T10:45:28;23.00;99.90
33815;DHT22;20121;51.910;8.406;2022-08-18T10:50:43;23.00;99.90
33815;DHT22;20121;51.910;8.406;2022-08-18T10:53:23;23.00;99.90
33815;DHT22;20121;51.910;8.406;2022-08-18T10:56:21;23.10;99.90
33815;DHT22;20121;51.910;8.406;2022-08-18T11:09:32;23.70;99.90
33815;DHT22;20121;51.910;8.406;2022-08-18T11:12:00;23.00;99.90
33815;DHT22;20121;51.910;8.406;2022-08-18T11:20:27;23.30;99.90
33815;DHT22;20121;51.910;8.406;2022-08-18T11:22:58;23.40;99.90
33815;DHT22;20121;51.910;8.406;2022-08-18T11:25:26;23.40;99.90
33815;DHT22;20121;51.910;8.406;2022-08-18T11:27:52;23.50;99.90
33815;DHT22;20121;51.910;8.406;2022-08-18T11:30:18;23.60;99.90
33815;DHT22;20121;51.910;8.406;2022-08-18T11:32:45;23.40;99.90
33815;DHT22;20121;51.910;8.406;2022-08-18T11:35:19;23.50;99.90
33815;DHT22;20121;51.910;8.406;2022-08-18T11:37:56;23.60;99.90
33815;DHT22;20121;51.910;8.406;2022-08-18T11:43:13;23.90;99.90
33815;DHT22;20121;51.910;8.406;2022-08-18T11:53:24;24.80;99.90
33815;DHT22;20121;51.910;8.406;2022-08-18T11:56:14;24.80;99.90
33815;DHT22;20121;51.910;8.406;2022-08-18T12:01:39;25.30;99.90
33815;DHT22;20121;51.910;8.406;2022-08-18T12:04:55;25.70;99.90
33815;DHT22;20121;51.910;8.406;2022-08-18T12:07:35;25.60;99.90
33815;DHT22;20121;51.910;8.406;2022-08-18T12:10:22;25.10;99.90
33815;DHT22;20121;51.910;8.406;2022-08-18T12:12:52;25.20;99.90
33815;DHT22;20121;51.910;8.406;2022-08-18T12:17:45;24.80;99.90
33815;DHT22;20121;51.910;8.406;2022-08-18T12:20:13;25.00;99.90
33815;DHT22;20121;51.910;8.406;2022-08-18T12:22:40;25.10;99.90
33815;DHT22;20121;51.910;8.406;2022-08-18T12:25:10;25.20;99.90
33815;DHT22;20121;51.910;8.406;2022-08-18T12:27:36;25.40;99.90
33815;DHT22;20121;51.910;8.406;2022-08-18T12:30:04;25.70;99.90
33815;DHT22;20121;51.910;8.406;2022-08-18T12:32:32;25.70;99.90
33815;DHT22;20121;51.910;8.406;2022-08-18T12:34:58;25.80;99.90
33815;DHT22;20121;51.910;8.406;2022-08-18T12:37:26;26.00;99.90
33815;DHT22;20121;51.910;8.406;2022-08-18T12:39:53;25.70;99.30
33815;DHT22;20121;51.910;8.406;2022-08-18T12:42:20;25.60;99.60
33815;DHT22;20121;51.910;8.406;2022-08-18T12:44:45;25.00;99.80
33815;DHT22;20121;51.910;8.406;2022-08-18T12:47:17;25.30;99.90
33815;DHT22;20121;51.910;8.406;2022-08-18T12:49:43;25.40;99.90
33815;DHT22;20121;51.910;8.406;2022-08-18T12:52:09;25.40;99.90
33815;DHT22;20121;51.910;8.406;2022-08-18T12:54:36;25.30;99.90
33815;DHT22;20121;51.910;8.406;2022-08-18T12:57:05;25.30;99.70
33815;DHT22;20121;51.910;8.406;2022-08-18T12:59:32;25.40;99.90
33815;DHT22;20121;51.910;8.406;2022-08-18T13:02:00;25.40;99.90
33815;DHT22;20121;51.910;8.406;2022-08-18T13:04:26;25.30;99.80
33815;DHT22;20121;51.910;8.406;2022-08-18T13:06:54;24.90;99.90
33815;DHT22;20121;51.910;8.406;2022-08-18T13:09:21;25.00;99.90
33815;DHT22;20121;51.910;8.406;2022-08-18T13:11:48;25.10;99.90
33815;DHT22;20121;51.910;8.406;2022-08-18T13:14:13;24.90;99.90
33815;DHT22;20121;51.910;8.406;2022-08-18T13:16:41;25.00;99.90
33815;DHT22;20121;51.910;8.406;2022-08-18T13:19:08;25.10;99.90
33815;DHT22;20121;51.910;8.406;2022-08-18T13:21:34;25.10;99.90
33815;DHT22;20121;51.910;8.406;2022-08-18T13:24:00;25.10;99.90
33815;DHT22;20121;51.910;8.406;2022-08-18T13:26:33;26.20;99.90
33815;DHT22;20121;51.910;8.406;2022-08-18T13:29:00;25.10;99.90
33815;DHT22;20121;51.910;8.406;2022-08-18T13:31:27;25.20;99.90
33815;DHT22;20121;51.910;8.406;2022-08-18T13:33:54;25.30;99.90
33815;DHT22;20121;51.910;8.406;2022-08-18T13:36:21;25.20;99.90
33815;DHT22;20121;51.910;8.406;2022-08-18T13:38:46;25.30;99.90
33815;DHT22;20121;51.910;8.406;2022-08-18T13:41:12;25.40;99.90
33815;DHT22;20121;51.910;8.406;2022-08-18T13:43:40;25.50;99.90
33815;DHT22;20121;51.910;8.406;2022-08-18T13:46:10;25.50;99.90
33815;DHT22;20121;51.910;8.406;2022-08-18T13:48:37;25.50;99.90
33815;DHT22;20121;51.910;8.406;2022-08-18T13:51:05;25.70;99.90
33815;DHT22;20121;51.910;8.406;2022-08-18T13:53:34;25.70;99.90
33815;DHT22;20121;51.910;8.406;2022-08-18T13:56:00;25.60;99.90
33815;DHT22;20121;51.910;8.406;2022-08-18T13:58:27;25.50;99.90
33815;DHT22;20121;51.910;8.406;2022-08-18T14:01:00;25.50;99.80
33815;DHT22;20121;51.910;8.406;2022-08-18T14:03:27;25.50;99.90
33815;DHT22;20121;51.910;8.406;2022-08-18T14:05:53;25.60;99.90
33815;DHT22;20121;51.910;8.406;2022-08-18T14:08:23;25.50;99.50
33815;DHT22;20121;51.910;8.406;2022-08-18T14:10:52;25.40;99.90
33815;DHT22;20121;51.910;8.406;2022-08-18T14:13:19;25.40;99.90
33815;DHT22;20121;51.910;8.406;2022-08-18T14:15:46;25.40;99.90
33815;DHT22;20121;51.910;8.406;2022-08-18T14:18:12;25.40;99.90
33815;DHT22;20121;51.910;8.406;2022-08-18T14:20:37;25.30;99.90
33815;DHT22;20121;51.910;8.406;2022-08-18T14:23:22;25.30;99.90
33815;DHT22;20121;51.910;8.406;2022-08-18T14:26:06;25.40;99.90
33815;DHT22;20121;51.910;8.406;2022-08-18T14:28:50;25.30;99.90
33815;DHT22;20121;51.910;8.406;2022-08-18T14:31:16;25.50;99.90
33815;DHT22;20121;51.910;8.406;2022-08-18T14:33:44;25.40;99.90
33815;DHT22;20121;51.910;8.406;2022-08-18T14:36:10;25.50;99.60
33815;DHT22;20121;51.910;8.406;2022-08-18T14:38:36;25.60;99.90
33815;DHT22;20121;51.910;8.406;2022-08-18T14:41:05;25.70;98.80
33815;DHT22;20121;51.910;8.406;2022-08-18T14:43:31;25.80;99.00
33815;DHT22;20121;51.910;8.406;2022-08-18T14:46:03;25.80;98.90
33815;DHT22;20121;51.910;8.406;2022-08-18T14:48:30;25.70;99.00
33815;DHT22;20121;51.910;8.406;2022-08-18T14:50:56;25.60;98.40
33815;DHT22;20121;51.910;8.406;2022-08-18T14:53:26;25.60;98.80
33815;DHT22;20121;51.910;8.406;2022-08-18T14:55:52;25.60;98.70
33815;DHT22;20121;51.910;8.406;2022-08-18T14:58:20;25.30;98.60
33815;DHT22;20121;51.910;8.406;2022-08-18T15:00:46;25.30;98.70
33815;DHT22;20121;51.910;8.406;2022-08-18T15:03:12;25.40;99.60
33815;DHT22;20121;51.910;8.406;2022-08-18T15:05:38;25.40;99.10
33815;DHT22;20121;51.910;8.406;2022-08-18T15:08:04;25.50;99.30
33815;DHT22;20121;51.910;8.406;2022-08-18T15:10:31;25.50;99.30
33815;DHT22;20121;51.910;8.406;2022-08-18T15:12:57;25.50;99.40
33815;DHT22;20121;51.910;8.406;2022-08-18T15:15:25;25.50;99.50
33815;DHT22;20121;51.910;8.406;2022-08-18T15:17:51;25.50;99.00
33815;DHT22;20121;51.910;8.406;2022-08-18T15:20:17;25.40;98.50
33815;DHT22;20121;51.910;8.406;2022-08-18T15:22:44;25.30;98.60
33815;DHT22;20121;51.910;8.406;2022-08-18T15:25:29;25.30;98.70
33815;DHT22;20121;51.910;8.406;2022-08-18T15:28:08;25.40;98.90
33815;DHT22;20121;51.910;8.406;2022-08-18T15:30:34;25.50;98.80
33815;DHT22;20121;51.910;8.406;2022-08-18T15:33:02;25.50;98.50
33815;DHT22;20121;51.910;8.406;2022-08-18T15:35:28;25.50;98.90
33815;DHT22;20121;51.910;8.406;2022-08-18T15:37:54;25.50;97.80
33815;DHT22;20121;51.910;8.406;2022-08-18T15:40:23;25.50;97.80
33815;DHT22;20121;51.910;8.406;2022-08-18T15:42:53;25.40;97.80
33815;DHT22;20121;51.910;8.406;2022-08-18T15:45:27;25.50;98.60
33815;DHT22;20121;51.910;8.406;2022-08-18T15:47:53;25.40;98.10
33815;DHT22;20121;51.910;8.406;2022-08-18T15:50:20;25.60;98.30
33815;DHT22;20121;51.910;8.406;2022-08-18T15:52:51;25.60;98.40
33815;DHT22;20121;51.910;8.406;2022-08-18T15:55:19;25.70;98.00
33815;DHT22;20121;51.910;8.406;2022-08-18T15:57:46;25.70;98.20
33815;DHT22;20121;51.910;8.406;2022-08-18T16:00:12;25.70;97.40
33815;DHT22;20121;51.910;8.406;2022-08-18T16:02:41;25.70;97.70
33815;DHT22;20121;51.910;8.406;2022-08-18T16:05:07;25.70;97.70
33815;DHT22;20121;51.910;8.406;2022-08-18T16:07:33;25.70;97.40
33815;DHT22;20121;51.910;8.406;2022-08-18T16:10:01;25.70;97.30
33815;DHT22;20121;51.910;8.406;2022-08-18T16:12:27;25.70;97.50
33815;DHT22;20121;51.910;8.406;2022-08-18T16:14:52;25.70;96.90
33815;DHT22;20121;51.910;8.406;2022-08-18T16:17:18;25.80;97.20
33815;DHT22;20121;51.910;8.406;2022-08-18T16:19:47;25.80;96.70
33815;DHT22;20121;51.910;8.406;2022-08-18T16:22:13;25.80;97.10
33815;DHT22;20121;51.910;8.406;2022-08-18T16:24:39;25.80;96.80
33815;DHT22;20121;51.910;8.406;2022-08-18T16:27:05;25.70;97.00
33815;DHT22;20121;51.910;8.406;2022-08-18T16:29:31;26.00;98.10
33815;DHT22;20121;51.910;8.406;2022-08-18T16:31:57;25.70;97.10
33815;DHT22;20121;51.910;8.406;2022-08-18T16:34:23;25.60;97.00
33815;DHT22;20121;51.910;8.406;2022-08-18T16:36:50;25.60;96.70
33815;DHT22;20121;51.910;8.406;2022-08-18T16:39:17;25.50;96.80
33815;DHT22;20121;51.910;8.406;2022-08-18T16:41:42;25.60;96.60
33815;DHT22;20121;51.910;8.406;2022-08-18T16:44:08;25.60;96.90
33815;DHT22;20121;51.910;8.406;2022-08-18T16:46:34;25.50;96.80
33815;DHT22;20121;51.910;8.406;2022-08-18T16:49:00;25.50;97.10
33815;DHT22;20121;51.910;8.406;2022-08-18T16:51:30;25.40;96.90
33815;DHT22;20121;51.910;8.406;2022-08-18T16:53:56;25.80;97.30
33815;DHT22;20121;51.910;8.406;2022-08-18T16:56:24;25.40;97.50
33815;DHT22;20121;51.910;8.406;2022-08-18T16:58:50;25.40;97.60
33815;DHT22;20121;51.910;8.406;2022-08-18T17:01:35;25.50;97.10
33815;DHT22;20121;51.910;8.406;2022-08-18T17:04:22;25.40;97.60
33815;DHT22;20121;51.910;8.406;2022-08-18T17:06:48;25.50;97.80
33815;DHT22;20121;51.910;8.406;2022-08-18T17:09:16;25.40;97.40
33815;DHT22;20121;51.910;8.406;2022-08-18T17:11:41;25.50;97.50
33815;DHT22;20121;51.910;8.406;2022-08-18T17:14:08;25.30;97.30
33815;DHT22;20121;51.910;8.406;2022-08-18T17:16:36;25.30;97.70
33815;DHT22;20121;51.910;8.406;2022-08-18T17:19:03;25.30;98.00
33815;DHT22;20121;51.910;8.406;2022-08-18T17:21:30;25.30;98.00
33815;DHT22;20121;51.910;8.406;2022-08-18T17:23:58;25.30;98.50
33815;DHT22;20121;51.910;8.406;2022-08-18T17:26:29;25.10;98.20
33815;DHT22;20121;51.910;8.406;2022-08-18T17:29:12;25.20;98.60
33815;DHT22;20121;51.910;8.406;2022-08-18T17:31:43;25.20;98.40
33815;DHT22;20121;51.910;8.406;2022-08-18T17:34:13;25.10;99.10
33815;DHT22;20121;51.910;8.406;2022-08-18T17:36:49;25.00;99.00
33815;DHT22;20121;51.910;8.406;2022-08-18T17:39:18;24.90;99.10
33815;DHT22;20121;51.910;8.406;2022-08-18T17:41:45;24.70;99.30
33815;DHT22;20121;51.910;8.406;2022-08-18T17:44:30;24.70;99.70
33815;DHT22;20121;51.910;8.406;2022-08-18T17:46:57;24.80;99.90
33815;DHT22;20121;51.910;8.406;2022-08-18T17:49:39;24.30;99.90
33815;DHT22;20121;51.910;8.406;2022-08-18T17:52:24;24.60;99.90
33815;DHT22;20121;51.910;8.406;2022-08-18T17:54:55;24.60;99.90
33815;DHT22;20121;51.910;8.406;2022-08-18T17:57:26;24.60;99.90
33815;DHT22;20121;51.910;8.406;2022-08-18T18:02:32;24.50;99.90
33815;DHT22;20121;51.910;8.406;2022-08-18T18:05:04;24.00;99.90
33815;DHT22;20121;51.910;8.406;2022-08-18T18:10:32;24.40;99.90
33815;DHT22;20121;51.910;8.406;2022-08-18T18:13:27;24.30;99.90
33815;DHT22;20121;51.910;8.406;2022-08-18T18:16:45;24.30;99.90
33815;DHT22;20121;51.910;8.406;2022-08-18T18:18:46;24.30;99.90
33815;DHT22;20121;51.910;8.406;2022-08-18T18:21:22;24.20;99.90
33815;DHT22;20121;51.910;8.406;2022-08-18T18:23:55;24.20;99.90
33815;DHT22;20121;51.910;8.406;2022-08-18T18:26:40;24.00;99.90
33815;DHT22;20121;51.910;8.406;2022-08-18T18:29:25;24.00;99.90
33815;DHT22;20121;51.910;8.406;2022-08-18T18:32:00;23.90;99.90
33815;DHT22;20121;51.910;8.406;2022-08-18T18:34:42;23.90;99.90
33815;DHT22;20121;51.910;8.406;2022-08-18T18:37:27;23.30;99.90
33815;DHT22;20121;51.910;8.406;2022-08-18T18:40:01;23.60;99.90
33815;DHT22;20121;51.910;8.406;2022-08-18T18:42:32;23.60;99.90
33815;DHT22;20121;51.910;8.406;2022-08-18T18:45:01;23.60;99.90